sensor_id;sensor_type;location;lat;lon;timestamp;pressure;altitude;pressure_sealevel;temperature;humidity
19672;BME280;9983;51.114;13.788;2023-04-29T00:04:15;98833.22;;;13.60;100.00
19672;BME280;9983;51.114;13.788;2023-04-29T00:09:16;98832.81;;;13.50;100.00
19672;BME280;9983;51.114;13.788;2023-04-29T00:14:16;98829.09;;;13.25;100.00
19672;BME280;9983;51.114;13.788;2023-04-29T00:19:16;98813.75;;;13.32;100.00
19672;BME280;9983;51.114;13.788;2023-04-29T00:24:17;98816.66;;;13.44;100.00
19672;BME280;9983;51.114;13.788;2023-04-29T00:29:17;98816.25;;;13.40;100.00
19672;BME280;9983;51.114;13.788;2023-04-29T00:34:18;98811.69;;;13.47;100.00
19672;BME280;9983;51.114;13.788;2023-04-29T00:39:18;98814.19;;;13.36;100.00
19672;BME280;9983;51.114;13.788;2023-04-29T00:44:18;98801.31;;;13.57;100.00
19672;BME280;9983;51.114;13.788;2023-04-29T00:49:19;98800.06;;;13.60;100.00
19672;BME280;9983;51.114;13.788;2023-04-29T00:54:19;98799.22;;;13.59;100.00
19672;BME280;9983;51.114;13.788;2023-04-29T00:59:19;98798.19;;;13.67;100.00
19672;BME280;9983;51.114;13.788;2023-04-29T01:04:20;98800.72;;;13.55;100.00
19672;BME280;9983;51.114;13.788;2023-04-29T01:15:03;98802.97;;;13.58;100.00
19672;BME280;9983;51.114;13.788;2023-04-29T01:20:05;98801.34;;;13.31;100.00
19672;BME280;9983;51.114;13.788;2023-04-29T01:25:06;98800.31;;;13.45;100.00
19672;BME280;9983;51.114;13.788;2023-04-29T01:30:18;98795.53;;;13.47;100.00
19672;BME280;9983;51.114;13.788;2023-04-29T01:35:44;98808.13;;;13.66;100.00
19672;BME280;9983;51.114;13.788;2023-04-29T01:40:59;98809.16;;;13.65;100.00
19672;BME280;9983;51.114;13.788;2023-04-29T01:46:08;98822.44;;;13.60;100.00
19672;BME280;9983;51.114;13.788;2023-04-29T01:51:08;98820.81;;;13.46;100.00
19672;BME280;9983;51.114;13.788;2023-04-29T01:56:10;98828.66;;;13.48;100.00
19672;BME280;9983;51.114;13.788;2023-04-29T02:01:10;98846.50;;;13.55;100.00
19672;BME280;9983;51.114;13.788;2023-04-29T02:06:11;98846.47;;;13.42;100.00
19672;BME280;9983;51.114;13.788;2023-04-29T02:11:12;98842.34;;;13.46;100.00
19672;BME280;9983;51.114;13.788;2023-04-29T02:16:13;98847.75;;;13.20;100.00
19672;BME280;9983;51.114;13.788;2023-04-29T02:21:14;98858.28;;;13.41;100.00
19672;BME280;9983;51.114;13.788;2023-04-29T02:26:14;98836.94;;;13.59;100.00
19672;BME280;9983;51.114;13.788;2023-04-29T02:31:15;98834.06;;;13.28;100.00
19672;BME280;9983;51.114;13.788;2023-04-29T02:36:15;98828.25;;;13.44;100.00
19672;BME280;9983;51.114;13.788;2023-04-29T02:41:16;98835.72;;;13.55;100.00
19672;BME280;9983;51.114;13.788;2023-04-29T02:46:17;98844.59;;;13.49;100.00
19672;BME280;9983;51.114;13.788;2023-04-29T02:51:17;98829.47;;;13.48;100.00
19672;BME280;9983;51.114;13.788;2023-04-29T02:56:18;98827.00;;;13.53;100.00
19672;BME280;9983;51.114;13.788;2023-04-29T03:01:18;98813.72;;;13.58;100.00
19672;BME280;9983;51.114;13.788;2023-04-29T03:06:18;98810.84;;;13.53;100.00
19672;BME280;9983;51.114;13.788;2023-04-29T03:11:19;98814.16;;;13.55;100.00
19672;BME280;9983;51.114;13.788;2023-04-29T03:16:19;98817.47;;;13.57;100.00
19672;BME280;9983;51.114;13.788;2023-04-29T03:21:20;98819.97;;;13.39;100.00
19672;BME280;9983;51.114;13.788;2023-04-29T03:26:20;98809.59;;;13.62;100.00
19672;BME280;9983;51.114;13.788;2023-04-29T03:31:23;98809.16;;;13.65;100.00
19672;BME280;9983;51.114;13.788;2023-04-29T03:36:24;98803.97;;;13.71;100.00
19672;BME280;9983;51.114;13.788;2023-04-29T03:41:24;98805.06;;;13.43;100.00
19672;BME280;9983;51.114;13.788;2023-04-29T03:46:26;98804.25;;;13.36;100.00
19672;BME280;9983;51.114;13.788;2023-04-29T03:51:26;98792.41;;;13.50;100.00
19672;BME280;9983;51.114;13.788;2023-04-29T03:56:27;98799.22;;;13.59;100.00
19672;BME280;9983;51.114;13.788;2023-04-29T04:01:27;98800.88;;;13.60;100.00
19672;BME280;9983;51.114;13.788;2023-04-29T04:06:27;98812.91;;;13.58;100.00
19672;BME280;9983;51.114;13.788;2023-04-29T04:11:27;98810.03;;;13.40;100.00
19672;BME280;9983;51.114;13.788;2023-04-29T04:16:28;98806.22;;;13.74;100.00
19672;BME280;9983;51.114;13.788;2023-04-29T04:21:28;98806.22;;;13.87;100.00
19672;BME280;9983;51.114;13.788;2023-04-29T04:26:29;98816.59;;;13.77;100.00
19672;BME280;9983;51.114;13.788;2023-04-29T04:31:29;98817.69;;;13.62;100.00
19672;BME280;9983;51.114;13.788;2023-04-29T04:36:30;98811.59;;;13.87;100.00
19672;BME280;9983;51.114;13.788;2023-04-29T04:41:31;98812.00;;;13.97;100.00
19672;BME280;9983;51.114;13.788;2023-04-29T04:46:32;98816.53;;;14.03;100.00
19672;BME280;9983;51.114;13.788;2023-04-29T04:51:32;98812.78;;;14.04;100.00
19672;BME280;9983;51.114;13.788;2023-04-29T04:56:32;98822.31;;;14.00;100.00
19672;BME280;9983;51.114;13.788;2023-04-29T05:01:33;98821.00;;;14.22;100.00
19672;BME280;9983;51.114;13.788;2023-04-29T05:06:33;98820.16;;;14.28;100.00
19672;BME280;9983;51.114;13.788;2023-04-29T05:11:34;98827.94;;;14.50;100.00
19672;BME280;9983;51.114;13.788;2023-04-29T05:16:34;98825.44;;;14.55;100.00
19672;BME280;9983;51.114;13.788;2023-04-29T05:21:34;98838.19;;;13.63;100.00
19672;BME280;9983;51.114;13.788;2023-04-29T05:26:35;98835.59;;;14.01;100.00
19672;BME280;9983;51.114;13.788;2023-04-29T05:31:35;98850.59;;;13.64;100.00
19672;BME280;9983;51.114;13.788;2023-04-29T05:36:36;98843.00;;;14.19;100.00
19672;BME280;9983;51.114;13.788;2023-04-29T05:41:36;98840.38;;;14.51;100.00
19672;BME280;9983;51.114;13.788;2023-04-29T05:46:36;98848.59;;;14.69;100.00
19672;BME280;9983;51.114;13.788;2023-04-29T05:51:37;98860.44;;;14.68;100.00
19672;BME280;9983;51.114;13.788;2023-04-29T05:56:37;98859.75;;;14.79;100.00
19672;BME280;9983;51.114;13.788;2023-04-29T06:01:37;98860.44;;;14.68;100.00
19672;BME280;9983;51.114;13.788;2023-04-29T06:06:38;98869.06;;;14.45;100.00
19672;BME280;9983;51.114;13.788;2023-04-29T06:11:38;98866.34;;;14.83;100.00
19672;BME280;9983;51.114;13.788;2023-04-29T06:16:39;98874.69;;;14.75;100.00
19672;BME280;9983;51.114;13.788;2023-04-29T06:21:40;98874.88;;;14.42;100.00
19672;BME280;9983;51.114;13.788;2023-04-29T06:26:40;98879.41;;;14.55;100.00
19672;BME280;9983;51.114;13.788;2023-04-29T06:31:40;98889.66;;;14.77;100.00
19672;BME280;9983;51.114;13.788;2023-04-29T06:36:41;98894.28;;;14.64;100.00
19672;BME280;9983;51.114;13.788;2023-04-29T06:41:41;98895.44;;;14.23;100.00
19672;BME280;9983;51.114;13.788;2023-04-29T06:46:41;98897.56;;;14.66;100.00
19672;BME280;9983;51.114;13.788;2023-04-29T06:51:42;98899.78;;;14.31;100.00
19672;BME280;9983;51.114;13.788;2023-04-29T06:56:42;98898.97;;;14.30;100.00
19672;BME280;9983;51.114;13.788;2023-04-29T07:01:42;98894.41;;;14.75;100.00
19672;BME280;9983;51.114;13.788;2023-04-29T07:06:43;98904.75;;;14.85;100.00
19672;BME280;9983;51.114;13.788;2023-04-29T07:11:45;98905.72;;;14.97;100.00
19672;BME280;9983;51.114;13.788;2023-04-29T07:16:46;98910.50;;;14.51;100.00
19672;BME280;9983;51.114;13.788;2023-04-29T07:21:46;98917.59;;;14.32;100.00
19672;BME280;9983;51.114;13.788;2023-04-29T07:26:46;98916.63;;;14.77;100.00
19672;BME280;9983;51.114;13.788;2023-04-29T07:31:46;98910.03;;;14.67;100.00
19672;BME280;9983;51.114;13.788;2023-04-29T07:36:47;98920.78;;;14.80;100.00
19672;BME280;9983;51.114;13.788;2023-04-29T07:41:47;98930.81;;;14.60;100.00
19672;BME280;9983;51.114;13.788;2023-04-29T07:46:47;98945.34;;;14.59;100.00
19672;BME280;9983;51.114;13.788;2023-04-29T07:51:47;98942.38;;;14.80;100.00
19672;BME280;9983;51.114;13.788;2023-04-29T07:56:48;98950.78;;;14.32;100.00
19672;BME280;9983;51.114;13.788;2023-04-29T08:01:49;98959.94;;;14.18;100.00
19672;BME280;9983;51.114;13.788;2023-04-29T08:06:49;98975.28;;;14.24;100.00
19672;BME280;9983;51.114;13.788;2023-04-29T08:11:49;98960.78;;;14.38;100.00
19672;BME280;9983;51.114;13.788;2023-04-29T08:16:49;98958.41;;;15.06;100.00
19672;BME280;9983;51.114;13.788;2023-04-29T08:21:50;98963.31;;;15.23;100.00
19672;BME280;9983;51.114;13.788;2023-04-29T08:26:51;98978.88;;;14.89;100.00
19672;BME280;9983;51.114;13.788;2023-04-29T08:31:52;98973.59;;;15.39;100.00
19672;BME280;9983;51.114;13.788;2023-04-29T08:36:52;98983.91;;;15.55;100.00
19672;BME280;9983;51.114;13.788;2023-04-29T08:41:53;98987.06;;;15.07;100.00
19672;BME280;9983;51.114;13.788;2023-04-29T08:46:54;98986.03;;;15.40;100.00
19672;BME280;9983;51.114;13.788;2023-04-29T08:51:54;98997.56;;;15.60;100.00
19672;BME280;9983;51.114;13.788;2023-04-29T08:56:55;98998.31;;;15.04;100.00
19672;BME280;9983;51.114;13.788;2023-04-29T09:01:57;99002.56;;;14.80;100.00
19672;BME280;9983;51.114;13.788;2023-04-29T09:06:58;98998.75;;;14.95;100.00
19672;BME280;9983;51.114;13.788;2023-04-29T09:11:58;99010.31;;;15.08;100.00
19672;BME280;9983;51.114;13.788;2023-04-29T09:16:59;99009.75;;;15.38;100.00
19672;BME280;9983;51.114;13.788;2023-04-29T09:22:01;99017.38;;;15.09;100.00
19672;BME280;9983;51.114;13.788;2023-04-29T09:27:01;99023.16;;;15.19;100.00
19672;BME280;9983;51.114;13.788;2023-04-29T09:32:17;99037.91;;;14.39;100.00
19672;BME280;9983;51.114;13.788;2023-04-29T09:37:25;99039.63;;;14.98;100.00
19672;BME280;9983;51.114;13.788;2023-04-29T09:42:26;99045.75;;;14.80;100.00
19672;BME280;9983;51.114;13.788;2023-04-29T09:47:30;99043.69;;;15.21;100.00
19672;BME280;9983;51.114;13.788;2023-04-29T09:52:39;99055.16;;;15.09;100.00
19672;BME280;9983;51.114;13.788;2023-04-29T09:57:39;99047.97;;;15.35;100.00
19672;BME280;9983;51.114;13.788;2023-04-29T10:02:45;99062.97;;;15.31;100.00
19672;BME280;9983;51.114;13.788;2023-04-29T10:07:49;99064.75;;;15.05;100.00
19672;BME280;9983;51.114;13.788;2023-04-29T10:12:52;99069.91;;;15.51;100.00
19672;BME280;9983;51.114;13.788;2023-04-29T10:18:18;99068.25;;;15.57;100.00
19672;BME280;9983;51.114;13.788;2023-04-29T10:23:20;99080.53;;;15.02;100.00
19672;BME280;9983;51.114;13.788;2023-04-29T10:28:22;99078.69;;;15.53;100.00
19672;BME280;9983;51.114;13.788;2023-04-29T10:33:24;99085.38;;;15.38;100.00
19672;BME280;9983;51.114;13.788;2023-04-29T10:38:28;99091.00;;;15.81;100.00
19672;BME280;9983;51.114;13.788;2023-04-29T10:43:29;99086.75;;;15.60;100.00
19672;BME280;9983;51.114;13.788;2023-04-29T10:48:31;99091.47;;;15.71;100.00
19672;BME280;9983;51.114;13.788;2023-04-29T10:53:31;99110.88;;;15.55;100.00
19672;BME280;9983;51.114;13.788;2023-04-29T10:58:42;99102.69;;;15.68;100.00
19672;BME280;9983;51.114;13.788;2023-04-29T11:03:48;99110.72;;;15.37;100.00
19672;BME280;9983;51.114;13.788;2023-04-29T11:09:03;99107.88;;;15.18;100.00
19672;BME280;9983;51.114;13.788;2023-04-29T11:14:08;99117.09;;;14.98;100.00
19672;BME280;9983;51.114;13.788;2023-04-29T11:19:14;99120.00;;;14.96;100.00
19672;BME280;9983;51.114;13.788;2023-04-29T11:24:14;99126.84;;;15.05;100.00
19672;BME280;9983;51.114;13.788;2023-04-29T11:29:17;99127.88;;;15.04;100.00
19672;BME280;9983;51.114;13.788;2023-04-29T11:34:23;99134.50;;;15.08;100.00
19672;BME280;9983;51.114;13.788;2023-04-29T11:39:25;99146.59;;;14.73;100.00
19672;BME280;9983;51.114;13.788;2023-04-29T11:44:25;99149.31;;;14.86;100.00
19672;BME280;9983;51.114;13.788;2023-04-29T11:49:32;99148.16;;;15.27;100.00
19672;BME280;9983;51.114;13.788;2023-04-29T11:54:33;99149.91;;;16.04;100.00
19672;BME280;9983;51.114;13.788;2023-04-29T11:59:33;99160.59;;;15.85;100.00
19672;BME280;9983;51.114;13.788;2023-04-29T12:04:44;99162.56;;;15.65;100.00
19672;BME280;9983;51.114;13.788;2023-04-29T12:09:45;99167.13;;;15.71;100.00
19672;BME280;9983;51.114;13.788;2023-04-29T12:14:45;99171.13;;;16.07;100.00
19672;BME280;9983;51.114;13.788;2023-04-29T12:19:46;99169.88;;;15.65;100.00
19672;BME280;9983;51.114;13.788;2023-04-29T12:24:47;99182.44;;;15.84;100.00
19672;BME280;9983;51.114;13.788;2023-04-29T12:29:51;99188.41;;;15.48;100.00
19672;BME280;9983;51.114;13.788;2023-04-29T12:34:51;99198.81;;;15.38;100.00
19672;BME280;9983;51.114;13.788;2023-04-29T12:39:53;99199.25;;;15.35;100.00
19672;BME280;9983;51.114;13.788;2023-04-29T12:44:54;99206.50;;;15.41;100.00
19672;BME280;9983;51.114;13.788;2023-04-29T12:49:56;99206.72;;;15.33;100.00
19672;BME280;9983;51.114;13.788;2023-04-29T12:54:56;99225.88;;;14.98;100.00
19672;BME280;9983;51.114;13.788;2023-04-29T12:59:56;99229.63;;;14.58;100.00
19672;BME280;9983;51.114;13.788;2023-04-29T13:04:57;99226.31;;;14.82;100.00
19672;BME280;9983;51.114;13.788;2023-04-29T13:09:57;99232.09;;;14.39;100.00
19672;BME280;9983;51.114;13.788;2023-04-29T13:14:57;99246.78;;;13.70;100.00
19672;BME280;9983;51.114;13.788;2023-04-29T13:19:58;99245.19;;;13.82;100.00
19672;BME280;9983;51.114;13.788;2023-04-29T13:24:58;99255.56;;;13.85;100.00
19672;BME280;9983;51.114;13.788;2023-04-29T13:29:58;99259.97;;;13.51;100.00
19672;BME280;9983;51.114;13.788;2023-04-29T13:34:59;99269.38;;;13.68;100.00
19672;BME280;9983;51.114;13.788;2023-04-29T13:39:59;99275.34;;;13.02;100.00
19672;BME280;9983;51.114;13.788;2023-04-29T13:45:00;99284.19;;;13.17;100.00
19672;BME280;9983;51.114;13.788;2023-04-29T13:50:00;99284.72;;;12.84;100.00
19672;BME280;9983;51.114;13.788;2023-04-29T13:55:01;99287.34;;;13.06;100.00
19672;BME280;9983;51.114;13.788;2023-04-29T14:00:01;99293.28;;;13.16;100.00
19672;BME280;9983;51.114;13.788;2023-04-29T14:05:01;99285.09;;;12.81;100.00
19672;BME280;9983;51.114;13.788;2023-04-29T14:10:01;99289.72;;;12.87;100.00
19672;BME280;9983;51.114;13.788;2023-04-29T14:15:02;99302.88;;;12.54;100.00
19672;BME280;9983;51.114;13.788;2023-04-29T14:20:03;99305.47;;;12.69;100.00
19672;BME280;9983;51.114;13.788;2023-04-29T14:25:03;99307.63;;;13.02;100.00
19672;BME280;9983;51.114;13.788;2023-04-29T14:30:04;99323.41;;;13.05;100.00
19672;BME280;9983;51.114;13.788;2023-04-29T14:35:05;99312.38;;;13.21;100.00
19672;BME280;9983;51.114;13.788;2023-04-29T14:40:06;99322.84;;;13.37;100.00
19672;BME280;9983;51.114;13.788;2023-04-29T14:45:07;99321.69;;;13.46;100.00
19672;BME280;9983;51.114;13.788;2023-04-29T14:50:08;99324.56;;;13.45;100.00
19672;BME280;9983;51.114;13.788;2023-04-29T14:55:09;99332.81;;;13.43;100.00
19672;BME280;9983;51.114;13.788;2023-04-29T15:00:09;99337.88;;;13.53;100.00
19672;BME280;9983;51.114;13.788;2023-04-29T15:05:11;99342.09;;;13.68;100.00
19672;BME280;9983;51.114;13.788;2023-04-29T15:10:11;99341.47;;;14.01;100.00
19672;BME280;9983;51.114;13.788;2023-04-29T15:15:12;99345.34;;;13.92;100.00
19672;BME280;9983;51.114;13.788;2023-04-29T15:20:12;99347.66;;;13.95;100.00
19672;BME280;9983;51.114;13.788;2023-04-29T15:25:12;99344.16;;;14.01;100.00
19672;BME280;9983;51.114;13.788;2023-04-29T15:30:13;99352.91;;;13.75;100.00
19672;BME280;9983;51.114;13.788;2023-04-29T15:35:13;99354.94;;;13.66;100.00
19672;BME280;9983;51.114;13.788;2023-04-29T15:40:13;99354.09;;;13.66;100.00
19672;BME280;9983;51.114;13.788;2023-04-29T15:45:13;99358.09;;;14.11;100.00
19672;BME280;9983;51.114;13.788;2023-04-29T15:50:14;99365.84;;;14.27;100.00
19672;BME280;9983;51.114;13.788;2023-04-29T15:55:14;99372.41;;;14.53;100.00
19672;BME280;9983;51.114;13.788;2023-04-29T16:00:15;99364.50;;;14.45;100.00
19672;BME280;9983;51.114;13.788;2023-04-29T16:05:15;99376.84;;;14.32;100.00
19672;BME280;9983;51.114;13.788;2023-04-29T16:10:15;99380.13;;;14.21;100.00
19672;BME280;9983;51.114;13.788;2023-04-29T16:15:15;99386.47;;;14.41;100.00
19672;BME280;9983;51.114;13.788;2023-04-29T16:20:16;99391.31;;;14.18;100.00
19672;BME280;9983;51.114;13.788;2023-04-29T16:25:16;99400.28;;;13.91;100.00
19672;BME280;9983;51.114;13.788;2023-04-29T16:30:16;99400.84;;;14.14;100.00
19672;BME280;9983;51.114;13.788;2023-04-29T16:35:17;99401.53;;;13.88;100.00
19672;BME280;9983;51.114;13.788;2023-04-29T16:40:17;99405.75;;;14.04;100.00
19672;BME280;9983;51.114;13.788;2023-04-29T16:45:17;99402.91;;;14.12;100.00
19672;BME280;9983;51.114;13.788;2023-04-29T16:50:18;99409.50;;;14.10;100.00
19672;BME280;9983;51.114;13.788;2023-04-29T16:55:18;99417.28;;;13.91;100.00
19672;BME280;9983;51.114;13.788;2023-04-29T17:00:18;99417.75;;;14.01;100.00
19672;BME280;9983;51.114;13.788;2023-04-29T17:05:19;99414.94;;;14.16;100.00
19672;BME280;9983;51.114;13.788;2023-04-29T17:10:19;99421.66;;;14.33;100.00
19672;BME280;9983;51.114;13.788;2023-04-29T17:15:19;99429.91;;;14.25;100.00
19672;BME280;9983;51.114;13.788;2023-04-29T17:20:20;99441.34;;;14.27;100.00
19672;BME280;9983;51.114;13.788;2023-04-29T17:25:20;99446.97;;;14.32;100.00
19672;BME280;9983;51.114;13.788;2023-04-29T17:30:21;99453.47;;;14.10;100.00
19672;BME280;9983;51.114;13.788;2023-04-29T17:35:21;99455.03;;;14.26;100.00
19672;BME280;9983;51.114;13.788;2023-04-29T17:40:22;99461.34;;;14.05;100.00
19672;BME280;9983;51.114;13.788;2023-04-29T17:45:22;99467.28;;;14.28;100.00
19672;BME280;9983;51.114;13.788;2023-04-29T17:50:22;99482.25;;;14.31;100.00
19672;BME280;9983;51.114;13.788;2023-04-29T17:55:22;99494.59;;;13.91;100.00
19672;BME280;9983;51.114;13.788;2023-04-29T18:00:23;99487.81;;;13.95;100.00
19672;BME280;9983;51.114;13.788;2023-04-29T18:05:23;99488.97;;;13.86;100.00
19672;BME280;9983;51.114;13.788;2023-04-29T18:10:23;99500.97;;;13.83;100.00
19672;BME280;9983;51.114;13.788;2023-04-29T18:15:24;99493.16;;;13.88;100.00
19672;BME280;9983;51.114;13.788;2023-04-29T18:20:24;99509.38;;;13.95;100.00
19672;BME280;9983;51.114;13.788;2023-04-29T18:25:24;99501.84;;;13.90;100.00
19672;BME280;9983;51.114;13.788;2023-04-29T18:30:25;99510.81;;;13.70;100.00
19672;BME280;9983;51.114;13.788;2023-04-29T18:35:27;99514.63;;;13.82;100.00
19672;BME280;9983;51.114;13.788;2023-04-29T18:40:27;99514.34;;;13.98;100.00
19672;BME280;9983;51.114;13.788;2023-04-29T18:45:27;99537.75;;;13.70;100.00
19672;BME280;9983;51.114;13.788;2023-04-29T18:50:28;99532.94;;;13.86;100.00
19672;BME280;9983;51.114;13.788;2023-04-29T18:55:28;99551.59;;;13.45;100.00
19672;BME280;9983;51.114;13.788;2023-04-29T19:00:29;99553.66;;;13.86;100.00
19672;BME280;9983;51.114;13.788;2023-04-29T19:05:30;99561.50;;;13.81;100.00
19672;BME280;9983;51.114;13.788;2023-04-29T19:10:30;99569.69;;;13.73;100.00
19672;BME280;9983;51.114;13.788;2023-04-29T19:15:31;99572.28;;;13.81;100.00
19672;BME280;9983;51.114;13.788;2023-04-29T19:20:31;99579.06;;;13.55;100.00
19672;BME280;9983;51.114;13.788;2023-04-29T19:25:32;99585.72;;;14.02;100.00
19672;BME280;9983;51.114;13.788;2023-04-29T19:30:32;99587.19;;;13.83;100.00
19672;BME280;9983;51.114;13.788;2023-04-29T19:35:32;99590.09;;;14.03;100.00
19672;BME280;9983;51.114;13.788;2023-04-29T19:40:32;99595.06;;;14.27;100.00
19672;BME280;9983;51.114;13.788;2023-04-29T19:45:33;99604.97;;;14.20;100.00
19672;BME280;9983;51.114;13.788;2023-04-29T19:50:34;99597.19;;;13.89;100.00
19672;BME280;9983;51.114;13.788;2023-04-29T19:55:34;99601.00;;;13.95;100.00
19672;BME280;9983;51.114;13.788;2023-04-29T20:00:35;99609.97;;;14.02;100.00
19672;BME280;9983;51.114;13.788;2023-04-29T20:05:35;99608.97;;;14.03;100.00
19672;BME280;9983;51.114;13.788;2023-04-29T20:10:36;99609.59;;;14.05;100.00
19672;BME280;9983;51.114;13.788;2023-04-29T20:15:36;99609.06;;;14.16;100.00
19672;BME280;9983;51.114;13.788;2023-04-29T20:20:36;99613.44;;;13.75;100.00
19672;BME280;9983;51.114;13.788;2023-04-29T20:25:37;99611.91;;;14.08;100.00
19672;BME280;9983;51.114;13.788;2023-04-29T20:30:37;99619.84;;;14.16;100.00
19672;BME280;9983;51.114;13.788;2023-04-29T20:35:37;99615.19;;;14.03;100.00
19672;BME280;9983;51.114;13.788;2023-04-29T20:40:37;99625.50;;;14.00;100.00
19672;BME280;9983;51.114;13.788;2023-04-29T20:45:38;99619.09;;;13.80;100.00
19672;BME280;9983;51.114;13.788;2023-04-29T20:50:38;99632.06;;;13.91;100.00
19672;BME280;9983;51.114;13.788;2023-04-29T20:55:38;99630.25;;;13.98;100.00
19672;BME280;9983;51.114;13.788;2023-04-29T21:00:39;99621.22;;;13.84;100.00
19672;BME280;9983;51.114;13.788;2023-04-29T21:05:39;99625.75;;;13.62;100.00
19672;BME280;9983;51.114;13.788;2023-04-29T21:10:40;99628.22;;;13.43;100.00
19672;BME280;9983;51.114;13.788;2023-04-29T21:15:43;99632.41;;;13.66;100.00
19672;BME280;9983;51.114;13.788;2023-04-29T21:20:43;99631.88;;;13.56;100.00
19672;BME280;9983;51.114;13.788;2023-04-29T21:25:44;99636.25;;;13.57;100.00
19672;BME280;9983;51.114;13.788;2023-04-29T21:30:45;99634.75;;;13.70;100.00
19672;BME280;9983;51.114;13.788;2023-04-29T21:35:45;99644.84;;;13.46;100.00
19672;BME280;9983;51.114;13.788;2023-04-29T21:40:47;99643.31;;;13.58;100.00
19672;BME280;9983;51.114;13.788;2023-04-29T21:45:48;99636.72;;;13.61;100.00
19672;BME280;9983;51.114;13.788;2023-04-29T21:50:49;99648.94;;;13.42;100.00
19672;BME280;9983;51.114;13.788;2023-04-29T21:55:49;99640.97;;;13.34;100.00
19672;BME280;9983;51.114;13.788;2023-04-29T22:00:49;99657.66;;;13.44;100.00
19672;BME280;9983;51.114;13.788;2023-04-29T22:05:57;99646.72;;;13.31;100.00
19672;BME280;9983;51.114;13.788;2023-04-29T22:10:57;99654.69;;;13.39;100.00
19672;BME280;9983;51.114;13.788;2023-04-29T22:15:58;99658.16;;;13.18;100.00
19672;BME280;9983;51.114;13.788;2023-04-29T22:20:58;99660.47;;;13.36;100.00
19672;BME280;9983;51.114;13.788;2023-04-29T22:25:58;99666.97;;;13.27;100.00
19672;BME280;9983;51.114;13.788;2023-04-29T22:30:59;99665.63;;;13.52;100.00
19672;BME280;9983;51.114;13.788;2023-04-29T22:35:59;99662.97;;;13.38;100.00
19672;BME280;9983;51.114;13.788;2023-04-29T22:40:59;99666.00;;;13.49;100.00
19672;BME280;9983;51.114;13.788;2023-04-29T22:46:00;99673.13;;;13.21;100.00
19672;BME280;9983;51.114;13.788;2023-04-29T22:51:01;99666.91;;;13.56;100.00
19672;BME280;9983;51.114;13.788;2023-04-29T22:56:04;99669.75;;;13.19;100.00
19672;BME280;9983;51.114;13.788;2023-04-29T23:01:04;99669.94;;;13.32;100.00
19672;BME280;9983;51.114;13.788;2023-04-29T23:06:05;99679.97;;;13.38;100.00
19672;BME280;9983;51.114;13.788;2023-04-29T23:11:05;99682.00;;;13.36;100.00
19672;BME280;9983;51.114;13.788;2023-04-29T23:16:06;99673.84;;;13.15;100.00
19672;BME280;9983;51.114;13.788;2023-04-29T23:21:06;99676.06;;;13.26;100.00
19672;BME280;9983;51.114;13.788;2023-04-29T23:26:06;99682.09;;;13.28;100.00
19672;BME280;9983;51.114;13.788;2023-04-29T23:31:07;99679.22;;;13.15;100.00
19672;BME280;9983;51.114;13.788;2023-04-29T23:36:07;99676.63;;;13.21;100.00
19672;BME280;9983;51.114;13.788;2023-04-29T23:41:07;99680.34;;;13.35;100.00
19672;BME280;9983;51.114;13.788;2023-04-29T23:46:08;99674.91;;;13.06;100.00
19672;BME280;9983;51.114;13.788;2023-04-29T23:51:09;99680.31;;;13.06;100.00
19672;BME280;9983;51.114;13.788;2023-04-29T23:56:09;99681.25;;;13.13;100.00
